sensor_id;sensor_type;location;lat;lon;timestamp;P1;durP1;ratioP1;P2;durP2;ratioP2
11220;SDS011;8517;53.546;10.104;2022-11-18T00:00:13;15.87;;;9.53;;
11220;SDS011;8517;53.546;10.104;2022-11-18T00:02:41;19.60;;;13.33;;
11220;SDS011;8517;53.546;10.104;2022-11-18T00:05:07;11.43;;;7.47;;
11220;SDS011;8517;53.546;10.104;2022-11-18T00:07:34;17.17;;;12.07;;
11220;SDS011;8517;53.546;10.104;2022-11-18T00:10:01;17.47;;;12.73;;
11220;SDS011;8517;53.546;10.104;2022-11-18T00:12:28;18.30;;;14.07;;
11220;SDS011;8517;53.546;10.104;2022-11-18T00:15:14;16.37;;;12.33;;
11220;SDS011;8517;53.546;10.104;2022-11-18T00:17:41;19.03;;;13.83;;
11220;SDS011;8517;53.546;10.104;2022-11-18T00:20:11;17.27;;;12.13;;
11220;SDS011;8517;53.546;10.104;2022-11-18T00:22:39;18.83;;;14.20;;
11220;SDS011;8517;53.546;10.104;2022-11-18T00:25:08;13.73;;;8.50;;
11220;SDS011;8517;53.546;10.104;2022-11-18T00:27:35;14.70;;;10.80;;
11220;SDS011;8517;53.546;10.104;2022-11-18T00:30:02;17.33;;;13.17;;
11220;SDS011;8517;53.546;10.104;2022-11-18T00:32:35;17.47;;;12.50;;
11220;SDS011;8517;53.546;10.104;2022-11-18T00:35:02;17.30;;;12.57;;
11220;SDS011;8517;53.546;10.104;2022-11-18T00:37:30;19.60;;;14.80;;
11220;SDS011;8517;53.546;10.104;2022-11-18T00:39:57;14.07;;;10.90;;
11220;SDS011;8517;53.546;10.104;2022-11-18T00:42:24;18.07;;;13.27;;
11220;SDS011;8517;53.546;10.104;2022-11-18T00:45:09;20.57;;;14.33;;
11220;SDS011;8517;53.546;10.104;2022-11-18T00:47:37;19.43;;;13.67;;
11220;SDS011;8517;53.546;10.104;2022-11-18T00:50:05;16.93;;;12.97;;
11220;SDS011;8517;53.546;10.104;2022-11-18T00:52:32;15.77;;;12.20;;
11220;SDS011;8517;53.546;10.104;2022-11-18T00:54:59;17.63;;;13.20;;
11220;SDS011;8517;53.546;10.104;2022-11-18T00:57:26;18.00;;;12.73;;
11220;SDS011;8517;53.546;10.104;2022-11-18T00:59:53;21.33;;;14.67;;
11220;SDS011;8517;53.546;10.104;2022-11-18T01:02:20;21.17;;;14.03;;
11220;SDS011;8517;53.546;10.104;2022-11-18T01:04:48;20.83;;;15.33;;
11220;SDS011;8517;53.546;10.104;2022-11-18T01:07:15;20.93;;;15.77;;
11220;SDS011;8517;53.546;10.104;2022-11-18T01:09:42;14.00;;;10.73;;
11220;SDS011;8517;53.546;10.104;2022-11-18T01:12:10;21.20;;;14.63;;
11220;SDS011;8517;53.546;10.104;2022-11-18T01:14:54;19.87;;;16.00;;
11220;SDS011;8517;53.546;10.104;2022-11-18T01:17:21;18.10;;;13.83;;
11220;SDS011;8517;53.546;10.104;2022-11-18T01:19:49;22.53;;;15.73;;
11220;SDS011;8517;53.546;10.104;2022-11-18T01:22:16;18.23;;;14.23;;
11220;SDS011;8517;53.546;10.104;2022-11-18T01:24:43;17.13;;;13.27;;
11220;SDS011;8517;53.546;10.104;2022-11-18T01:27:10;18.83;;;15.53;;
11220;SDS011;8517;53.546;10.104;2022-11-18T01:29:36;22.23;;;16.20;;
11220;SDS011;8517;53.546;10.104;2022-11-18T01:32:03;20.17;;;15.80;;
11220;SDS011;8517;53.546;10.104;2022-11-18T01:34:31;15.60;;;10.87;;
11220;SDS011;8517;53.546;10.104;2022-11-18T01:36:59;20.90;;;14.57;;
11220;SDS011;8517;53.546;10.104;2022-11-18T01:39:26;20.80;;;15.27;;
11220;SDS011;8517;53.546;10.104;2022-11-18T01:41:53;14.53;;;9.10;;
11220;SDS011;8517;53.546;10.104;2022-11-18T01:47:23;24.00;;;16.63;;
11220;SDS011;8517;53.546;10.104;2022-11-18T01:49:53;23.07;;;17.23;;
11220;SDS011;8517;53.546;10.104;2022-11-18T01:52:21;13.07;;;8.90;;
11220;SDS011;8517;53.546;10.104;2022-11-18T01:54:49;22.63;;;16.57;;
11220;SDS011;8517;53.546;10.104;2022-11-18T01:57:19;18.10;;;13.70;;
11220;SDS011;8517;53.546;10.104;2022-11-18T01:59:49;22.90;;;16.87;;
11220;SDS011;8517;53.546;10.104;2022-11-18T02:02:20;24.47;;;17.60;;
11220;SDS011;8517;53.546;10.104;2022-11-18T02:04:47;23.30;;;18.07;;
11220;SDS011;8517;53.546;10.104;2022-11-18T02:07:17;16.77;;;12.80;;
11220;SDS011;8517;53.546;10.104;2022-11-18T02:09:47;15.43;;;10.60;;
11220;SDS011;8517;53.546;10.104;2022-11-18T02:12:14;25.27;;;18.63;;
11220;SDS011;8517;53.546;10.104;2022-11-18T02:14:42;26.33;;;18.10;;
11220;SDS011;8517;53.546;10.104;2022-11-18T02:17:12;25.77;;;18.93;;
11220;SDS011;8517;53.546;10.104;2022-11-18T02:19:52;24.47;;;18.97;;
11220;SDS011;8517;53.546;10.104;2022-11-18T02:22:46;25.53;;;16.70;;
11220;SDS011;8517;53.546;10.104;2022-11-18T02:25:29;24.40;;;19.10;;
11220;SDS011;8517;53.546;10.104;2022-11-18T02:28:15;24.83;;;17.87;;
11220;SDS011;8517;53.546;10.104;2022-11-18T02:31:03;21.30;;;15.17;;
11220;SDS011;8517;53.546;10.104;2022-11-18T02:33:37;25.47;;;18.37;;
11220;SDS011;8517;53.546;10.104;2022-11-18T02:36:12;24.80;;;18.63;;
11220;SDS011;8517;53.546;10.104;2022-11-18T02:38:44;24.13;;;18.37;;
11220;SDS011;8517;53.546;10.104;2022-11-18T02:41:15;26.27;;;19.03;;
11220;SDS011;8517;53.546;10.104;2022-11-18T02:43:46;25.10;;;19.07;;
11220;SDS011;8517;53.546;10.104;2022-11-18T02:46:18;25.63;;;18.27;;
11220;SDS011;8517;53.546;10.104;2022-11-18T02:48:50;23.93;;;17.27;;
11220;SDS011;8517;53.546;10.104;2022-11-18T02:51:20;23.00;;;17.43;;
11220;SDS011;8517;53.546;10.104;2022-11-18T02:53:51;23.97;;;18.63;;
11220;SDS011;8517;53.546;10.104;2022-11-18T02:56:21;21.50;;;16.17;;
11220;SDS011;8517;53.546;10.104;2022-11-18T02:58:51;25.67;;;16.67;;
11220;SDS011;8517;53.546;10.104;2022-11-18T03:01:20;22.63;;;16.43;;
11220;SDS011;8517;53.546;10.104;2022-11-18T03:03:49;21.03;;;12.27;;
11220;SDS011;8517;53.546;10.104;2022-11-18T03:06:18;22.50;;;17.00;;
11220;SDS011;8517;53.546;10.104;2022-11-18T03:08:53;18.23;;;12.33;;
11220;SDS011;8517;53.546;10.104;2022-11-18T03:11:28;19.57;;;14.87;;
11220;SDS011;8517;53.546;10.104;2022-11-18T03:14:04;22.43;;;17.90;;
11220;SDS011;8517;53.546;10.104;2022-11-18T03:16:40;24.40;;;17.50;;
11220;SDS011;8517;53.546;10.104;2022-11-18T03:19:16;24.57;;;17.90;;
11220;SDS011;8517;53.546;10.104;2022-11-18T03:21:49;21.63;;;17.50;;
11220;SDS011;8517;53.546;10.104;2022-11-18T03:24:24;19.20;;;14.83;;
11220;SDS011;8517;53.546;10.104;2022-11-18T03:26:59;13.00;;;8.50;;
11220;SDS011;8517;53.546;10.104;2022-11-18T03:29:37;16.77;;;12.67;;
11220;SDS011;8517;53.546;10.104;2022-11-18T03:32:08;21.70;;;17.27;;
11220;SDS011;8517;53.546;10.104;2022-11-18T03:34:39;17.27;;;14.03;;
11220;SDS011;8517;53.546;10.104;2022-11-18T03:37:11;21.93;;;16.53;;
11220;SDS011;8517;53.546;10.104;2022-11-18T03:39:40;15.73;;;10.90;;
11220;SDS011;8517;53.546;10.104;2022-11-18T03:42:11;20.77;;;16.47;;
11220;SDS011;8517;53.546;10.104;2022-11-18T03:44:45;18.87;;;14.47;;
11220;SDS011;8517;53.546;10.104;2022-11-18T03:47:18;15.00;;;10.60;;
11220;SDS011;8517;53.546;10.104;2022-11-18T03:49:50;19.27;;;14.23;;
11220;SDS011;8517;53.546;10.104;2022-11-18T03:52:21;19.13;;;15.33;;
11220;SDS011;8517;53.546;10.104;2022-11-18T03:54:52;15.77;;;12.10;;
11220;SDS011;8517;53.546;10.104;2022-11-18T03:57:22;13.23;;;8.73;;
11220;SDS011;8517;53.546;10.104;2022-11-18T03:59:55;19.87;;;16.33;;
11220;SDS011;8517;53.546;10.104;2022-11-18T04:02:30;35.40;;;24.10;;
11220;SDS011;8517;53.546;10.104;2022-11-18T04:04:57;19.70;;;14.60;;
11220;SDS011;8517;53.546;10.104;2022-11-18T04:07:29;14.73;;;10.77;;
11220;SDS011;8517;53.546;10.104;2022-11-18T04:10:01;20.20;;;16.30;;
11220;SDS011;8517;53.546;10.104;2022-11-18T04:12:32;20.40;;;14.03;;
11220;SDS011;8517;53.546;10.104;2022-11-18T04:15:12;15.53;;;11.40;;
11220;SDS011;8517;53.546;10.104;2022-11-18T04:17:42;15.87;;;12.27;;
11220;SDS011;8517;53.546;10.104;2022-11-18T04:20:11;20.93;;;15.63;;
11220;SDS011;8517;53.546;10.104;2022-11-18T04:22:42;20.70;;;15.00;;
11220;SDS011;8517;53.546;10.104;2022-11-18T04:25:08;19.83;;;14.97;;
11220;SDS011;8517;53.546;10.104;2022-11-18T04:27:35;20.00;;;17.03;;
11220;SDS011;8517;53.546;10.104;2022-11-18T04:30:03;19.90;;;14.80;;
11220;SDS011;8517;53.546;10.104;2022-11-18T04:32:31;22.27;;;15.50;;
11220;SDS011;8517;53.546;10.104;2022-11-18T04:35:00;21.03;;;16.77;;
11220;SDS011;8517;53.546;10.104;2022-11-18T04:37:27;20.63;;;15.40;;
11220;SDS011;8517;53.546;10.104;2022-11-18T04:39:54;23.23;;;17.63;;
11220;SDS011;8517;53.546;10.104;2022-11-18T04:42:20;20.17;;;16.10;;
11220;SDS011;8517;53.546;10.104;2022-11-18T04:44:47;15.80;;;11.23;;
11220;SDS011;8517;53.546;10.104;2022-11-18T04:47:14;22.73;;;18.03;;
11220;SDS011;8517;53.546;10.104;2022-11-18T04:49:41;19.50;;;16.30;;
11220;SDS011;8517;53.546;10.104;2022-11-18T04:52:10;22.03;;;17.33;;
11220;SDS011;8517;53.546;10.104;2022-11-18T04:54:36;24.57;;;18.50;;
11220;SDS011;8517;53.546;10.104;2022-11-18T04:57:03;22.80;;;17.43;;
11220;SDS011;8517;53.546;10.104;2022-11-18T04:59:30;21.47;;;17.60;;
11220;SDS011;8517;53.546;10.104;2022-11-18T05:01:58;25.63;;;18.40;;
11220;SDS011;8517;53.546;10.104;2022-11-18T05:04:26;24.70;;;18.57;;
11220;SDS011;8517;53.546;10.104;2022-11-18T05:06:55;23.33;;;17.00;;
11220;SDS011;8517;53.546;10.104;2022-11-18T05:09:23;22.57;;;18.00;;
11220;SDS011;8517;53.546;10.104;2022-11-18T05:11:50;18.80;;;15.00;;
11220;SDS011;8517;53.546;10.104;2022-11-18T05:14:47;22.80;;;17.73;;
11220;SDS011;8517;53.546;10.104;2022-11-18T05:17:17;24.03;;;18.83;;
11220;SDS011;8517;53.546;10.104;2022-11-18T05:19:46;26.63;;;19.23;;
11220;SDS011;8517;53.546;10.104;2022-11-18T05:22:16;14.07;;;8.87;;
11220;SDS011;8517;53.546;10.104;2022-11-18T05:24:44;27.43;;;20.37;;
11220;SDS011;8517;53.546;10.104;2022-11-18T05:27:14;20.57;;;15.17;;
11220;SDS011;8517;53.546;10.104;2022-11-18T05:29:41;23.53;;;18.90;;
11220;SDS011;8517;53.546;10.104;2022-11-18T05:32:08;22.20;;;16.57;;
11220;SDS011;8517;53.546;10.104;2022-11-18T05:34:35;17.60;;;12.40;;
11220;SDS011;8517;53.546;10.104;2022-11-18T05:37:12;25.93;;;20.37;;
11220;SDS011;8517;53.546;10.104;2022-11-18T05:39:58;23.63;;;18.20;;
11220;SDS011;8517;53.546;10.104;2022-11-18T05:45:31;26.07;;;19.70;;
11220;SDS011;8517;53.546;10.104;2022-11-18T05:47:58;26.37;;;19.07;;
11220;SDS011;8517;53.546;10.104;2022-11-18T05:50:25;17.67;;;12.33;;
11220;SDS011;8517;53.546;10.104;2022-11-18T05:52:52;21.77;;;17.23;;
11220;SDS011;8517;53.546;10.104;2022-11-18T05:55:21;27.00;;;21.07;;
11220;SDS011;8517;53.546;10.104;2022-11-18T05:57:50;25.23;;;19.83;;
11220;SDS011;8517;53.546;10.104;2022-11-18T06:00:17;25.90;;;19.77;;
11220;SDS011;8517;53.546;10.104;2022-11-18T06:02:46;23.27;;;18.47;;
11220;SDS011;8517;53.546;10.104;2022-11-18T06:05:19;25.90;;;19.40;;
11220;SDS011;8517;53.546;10.104;2022-11-18T06:07:47;19.73;;;14.47;;
11220;SDS011;8517;53.546;10.104;2022-11-18T06:10:15;25.80;;;19.83;;
11220;SDS011;8517;53.546;10.104;2022-11-18T06:12:47;27.30;;;21.67;;
11220;SDS011;8517;53.546;10.104;2022-11-18T06:15:17;26.87;;;20.77;;
11220;SDS011;8517;53.546;10.104;2022-11-18T06:17:48;26.47;;;19.93;;
11220;SDS011;8517;53.546;10.104;2022-11-18T06:20:18;27.97;;;21.20;;
11220;SDS011;8517;53.546;10.104;2022-11-18T06:22:49;20.70;;;13.43;;
11220;SDS011;8517;53.546;10.104;2022-11-18T06:25:21;25.83;;;18.90;;
11220;SDS011;8517;53.546;10.104;2022-11-18T06:27:51;27.37;;;21.17;;
11220;SDS011;8517;53.546;10.104;2022-11-18T06:30:20;24.93;;;18.20;;
11220;SDS011;8517;53.546;10.104;2022-11-18T06:32:47;26.30;;;20.87;;
11220;SDS011;8517;53.546;10.104;2022-11-18T06:35:16;31.40;;;22.07;;
11220;SDS011;8517;53.546;10.104;2022-11-18T06:37:43;26.67;;;20.60;;
11220;SDS011;8517;53.546;10.104;2022-11-18T06:40:11;25.50;;;20.33;;
11220;SDS011;8517;53.546;10.104;2022-11-18T06:42:46;29.43;;;20.50;;
11220;SDS011;8517;53.546;10.104;2022-11-18T06:49:04;24.93;;;18.87;;
11220;SDS011;8517;53.546;10.104;2022-11-18T06:51:31;23.03;;;15.17;;
11220;SDS011;8517;53.546;10.104;2022-11-18T06:53:58;26.70;;;20.90;;
11220;SDS011;8517;53.546;10.104;2022-11-18T06:56:34;21.00;;;11.50;;
11220;SDS011;8517;53.546;10.104;2022-11-18T06:59:02;30.23;;;22.13;;
11220;SDS011;8517;53.546;10.104;2022-11-18T07:01:33;29.43;;;21.33;;
11220;SDS011;8517;53.546;10.104;2022-11-18T07:04:02;31.07;;;22.30;;
11220;SDS011;8517;53.546;10.104;2022-11-18T07:06:34;29.37;;;19.90;;
11220;SDS011;8517;53.546;10.104;2022-11-18T07:09:06;29.10;;;20.10;;
11220;SDS011;8517;53.546;10.104;2022-11-18T07:11:38;33.33;;;24.60;;
11220;SDS011;8517;53.546;10.104;2022-11-18T07:14:05;30.70;;;20.03;;
11220;SDS011;8517;53.546;10.104;2022-11-18T07:16:32;30.23;;;23.60;;
11220;SDS011;8517;53.546;10.104;2022-11-18T07:19:31;27.77;;;19.70;;
11220;SDS011;8517;53.546;10.104;2022-11-18T07:24:48;27.43;;;20.00;;
11220;SDS011;8517;53.546;10.104;2022-11-18T07:27:15;26.03;;;19.97;;
11220;SDS011;8517;53.546;10.104;2022-11-18T07:29:42;27.17;;;20.63;;
11220;SDS011;8517;53.546;10.104;2022-11-18T07:32:09;30.60;;;22.00;;
11220;SDS011;8517;53.546;10.104;2022-11-18T07:34:36;29.93;;;21.70;;
11220;SDS011;8517;53.546;10.104;2022-11-18T07:37:05;28.03;;;21.07;;
11220;SDS011;8517;53.546;10.104;2022-11-18T07:39:43;26.53;;;19.77;;
11220;SDS011;8517;53.546;10.104;2022-11-18T07:42:10;20.73;;;13.20;;
11220;SDS011;8517;53.546;10.104;2022-11-18T07:44:37;23.50;;;15.70;;
11220;SDS011;8517;53.546;10.104;2022-11-18T07:47:04;23.03;;;17.23;;
11220;SDS011;8517;53.546;10.104;2022-11-18T07:49:32;19.07;;;12.30;;
11220;SDS011;8517;53.546;10.104;2022-11-18T07:51:59;25.90;;;19.37;;
11220;SDS011;8517;53.546;10.104;2022-11-18T07:54:26;26.47;;;19.80;;
11220;SDS011;8517;53.546;10.104;2022-11-18T07:56:54;24.50;;;17.27;;
11220;SDS011;8517;53.546;10.104;2022-11-18T07:59:21;26.47;;;18.37;;
11220;SDS011;8517;53.546;10.104;2022-11-18T08:01:48;21.37;;;17.07;;
11220;SDS011;8517;53.546;10.104;2022-11-18T08:04:15;22.43;;;16.43;;
11220;SDS011;8517;53.546;10.104;2022-11-18T08:06:43;20.60;;;14.37;;
11220;SDS011;8517;53.546;10.104;2022-11-18T08:09:10;23.80;;;17.10;;
11220;SDS011;8517;53.546;10.104;2022-11-18T08:11:37;21.53;;;16.30;;
11220;SDS011;8517;53.546;10.104;2022-11-18T08:14:06;23.63;;;18.30;;
11220;SDS011;8517;53.546;10.104;2022-11-18T08:16:33;21.77;;;15.90;;
11220;SDS011;8517;53.546;10.104;2022-11-18T08:19:00;22.50;;;17.73;;
11220;SDS011;8517;53.546;10.104;2022-11-18T08:21:27;21.20;;;12.97;;
11220;SDS011;8517;53.546;10.104;2022-11-18T08:23:55;20.93;;;16.90;;
11220;SDS011;8517;53.546;10.104;2022-11-18T08:26:23;24.07;;;18.33;;
11220;SDS011;8517;53.546;10.104;2022-11-18T08:28:51;23.67;;;17.17;;
11220;SDS011;8517;53.546;10.104;2022-11-18T08:31:20;21.80;;;14.90;;
11220;SDS011;8517;53.546;10.104;2022-11-18T08:33:52;17.80;;;12.27;;
11220;SDS011;8517;53.546;10.104;2022-11-18T08:36:20;20.83;;;15.87;;
11220;SDS011;8517;53.546;10.104;2022-11-18T08:38:48;20.03;;;13.90;;
11220;SDS011;8517;53.546;10.104;2022-11-18T08:41:15;22.63;;;18.13;;
11220;SDS011;8517;53.546;10.104;2022-11-18T08:43:45;19.80;;;15.27;;
11220;SDS011;8517;53.546;10.104;2022-11-18T08:46:12;23.77;;;17.63;;
11220;SDS011;8517;53.546;10.104;2022-11-18T08:48:40;25.43;;;19.30;;
11220;SDS011;8517;53.546;10.104;2022-11-18T08:51:08;17.37;;;11.50;;
11220;SDS011;8517;53.546;10.104;2022-11-18T08:53:35;21.27;;;14.47;;
11220;SDS011;8517;53.546;10.104;2022-11-18T08:56:03;23.70;;;18.37;;
11220;SDS011;8517;53.546;10.104;2022-11-18T08:58:31;19.33;;;13.93;;
11220;SDS011;8517;53.546;10.104;2022-11-18T09:01:09;22.27;;;16.27;;
11220;SDS011;8517;53.546;10.104;2022-11-18T09:24:14;22.53;;;16.97;;
11220;SDS011;8517;53.546;10.104;2022-11-18T09:26:41;18.13;;;13.03;;
11220;SDS011;8517;53.546;10.104;2022-11-18T09:29:08;40.90;;;26.67;;
11220;SDS011;8517;53.546;10.104;2022-11-18T09:31:35;22.30;;;16.57;;
11220;SDS011;8517;53.546;10.104;2022-11-18T09:34:02;22.27;;;17.20;;
11220;SDS011;8517;53.546;10.104;2022-11-18T09:36:29;23.87;;;18.77;;
11220;SDS011;8517;53.546;10.104;2022-11-18T09:38:57;24.27;;;17.63;;
11220;SDS011;8517;53.546;10.104;2022-11-18T09:41:30;21.70;;;16.53;;
11220;SDS011;8517;53.546;10.104;2022-11-18T09:44:12;22.80;;;16.60;;
11220;SDS011;8517;53.546;10.104;2022-11-18T09:46:53;19.90;;;15.53;;
11220;SDS011;8517;53.546;10.104;2022-11-18T09:49:31;20.40;;;15.60;;
11220;SDS011;8517;53.546;10.104;2022-11-18T09:52:01;20.87;;;16.47;;
11220;SDS011;8517;53.546;10.104;2022-11-18T09:54:30;22.63;;;18.40;;
11220;SDS011;8517;53.546;10.104;2022-11-18T09:57:01;20.80;;;14.87;;
11220;SDS011;8517;53.546;10.104;2022-11-18T09:59:31;24.97;;;16.30;;
11220;SDS011;8517;53.546;10.104;2022-11-18T10:02:01;15.20;;;11.97;;
11220;SDS011;8517;53.546;10.104;2022-11-18T10:04:39;18.37;;;13.40;;
11220;SDS011;8517;53.546;10.104;2022-11-18T10:07:07;21.03;;;16.37;;
11220;SDS011;8517;53.546;10.104;2022-11-18T10:09:41;20.03;;;16.43;;
11220;SDS011;8517;53.546;10.104;2022-11-18T10:12:16;21.67;;;16.00;;
11220;SDS011;8517;53.546;10.104;2022-11-18T10:14:59;18.93;;;14.57;;
11220;SDS011;8517;53.546;10.104;2022-11-18T10:17:43;18.50;;;15.23;;
11220;SDS011;8517;53.546;10.104;2022-11-18T10:20:18;22.23;;;13.97;;
11220;SDS011;8517;53.546;10.104;2022-11-18T10:22:51;18.87;;;14.77;;
11220;SDS011;8517;53.546;10.104;2022-11-18T10:25:21;18.60;;;14.47;;
11220;SDS011;8517;53.546;10.104;2022-11-18T10:27:49;15.77;;;12.57;;
11220;SDS011;8517;53.546;10.104;2022-11-18T10:30:17;17.57;;;14.07;;
11220;SDS011;8517;53.546;10.104;2022-11-18T10:32:53;16.50;;;11.97;;
11220;SDS011;8517;53.546;10.104;2022-11-18T10:35:28;17.13;;;13.03;;
11220;SDS011;8517;53.546;10.104;2022-11-18T10:38:01;17.33;;;11.43;;
11220;SDS011;8517;53.546;10.104;2022-11-18T10:40:31;14.57;;;11.33;;
11220;SDS011;8517;53.546;10.104;2022-11-18T10:43:01;13.93;;;11.47;;
11220;SDS011;8517;53.546;10.104;2022-11-18T10:45:28;15.50;;;12.37;;
11220;SDS011;8517;53.546;10.104;2022-11-18T10:47:59;11.83;;;8.70;;
11220;SDS011;8517;53.546;10.104;2022-11-18T10:50:32;13.20;;;10.73;;
11220;SDS011;8517;53.546;10.104;2022-11-18T10:53:05;14.00;;;11.13;;
11220;SDS011;8517;53.546;10.104;2022-11-18T10:55:48;13.90;;;10.97;;
11220;SDS011;8517;53.546;10.104;2022-11-18T10:58:24;13.37;;;11.40;;
11220;SDS011;8517;53.546;10.104;2022-11-18T11:00:55;13.17;;;10.77;;
11220;SDS011;8517;53.546;10.104;2022-11-18T11:03:32;8.70;;;6.80;;
11220;SDS011;8517;53.546;10.104;2022-11-18T11:06:14;11.00;;;8.27;;
11220;SDS011;8517;53.546;10.104;2022-11-18T11:09:03;9.73;;;6.70;;
11220;SDS011;8517;53.546;10.104;2022-11-18T11:11:33;13.43;;;10.77;;
11220;SDS011;8517;53.546;10.104;2022-11-18T11:14:22;10.90;;;8.87;;
11220;SDS011;8517;53.546;10.104;2022-11-18T11:16:58;12.23;;;9.70;;
11220;SDS011;8517;53.546;10.104;2022-11-18T11:19:37;12.93;;;10.00;;
11220;SDS011;8517;53.546;10.104;2022-11-18T11:22:11;12.67;;;9.63;;
11220;SDS011;8517;53.546;10.104;2022-11-18T11:24:38;11.40;;;7.30;;
11220;SDS011;8517;53.546;10.104;2022-11-18T11:27:11;11.50;;;8.93;;
11220;SDS011;8517;53.546;10.104;2022-11-18T11:30:06;11.53;;;7.50;;
11220;SDS011;8517;53.546;10.104;2022-11-18T11:32:48;14.33;;;10.03;;
11220;SDS011;8517;53.546;10.104;2022-11-18T11:35:32;10.60;;;8.17;;
11220;SDS011;8517;53.546;10.104;2022-11-18T11:38:12;13.53;;;9.87;;
11220;SDS011;8517;53.546;10.104;2022-11-18T11:40:45;12.37;;;8.83;;
11220;SDS011;8517;53.546;10.104;2022-11-18T11:43:23;15.03;;;10.67;;
11220;SDS011;8517;53.546;10.104;2022-11-18T11:46:13;11.97;;;10.13;;
11220;SDS011;8517;53.546;10.104;2022-11-18T11:52:45;11.73;;;9.07;;
11220;SDS011;8517;53.546;10.104;2022-11-18T11:55:46;10.20;;;6.53;;
11220;SDS011;8517;53.546;10.104;2022-11-18T11:58:28;12.73;;;9.47;;
11220;SDS011;8517;53.546;10.104;2022-11-18T12:01:07;13.27;;;9.50;;
11220;SDS011;8517;53.546;10.104;2022-11-18T12:03:45;14.70;;;9.63;;
11220;SDS011;8517;53.546;10.104;2022-11-18T12:06:17;13.47;;;9.93;;
11220;SDS011;8517;53.546;10.104;2022-11-18T12:08:47;8.53;;;6.20;;
11220;SDS011;8517;53.546;10.104;2022-11-18T12:11:29;13.33;;;10.33;;
11220;SDS011;8517;53.546;10.104;2022-11-18T12:14:09;8.83;;;6.43;;
11220;SDS011;8517;53.546;10.104;2022-11-18T12:16:50;14.60;;;10.37;;
11220;SDS011;8517;53.546;10.104;2022-11-18T12:19:22;12.47;;;9.73;;
11220;SDS011;8517;53.546;10.104;2022-11-18T12:21:53;13.60;;;9.97;;
11220;SDS011;8517;53.546;10.104;2022-11-18T12:24:26;11.17;;;7.73;;
11220;SDS011;8517;53.546;10.104;2022-11-18T12:26:57;15.70;;;9.70;;
11220;SDS011;8517;53.546;10.104;2022-11-18T12:32:49;13.17;;;9.07;;
11220;SDS011;8517;53.546;10.104;2022-11-18T12:35:32;13.00;;;8.87;;
11220;SDS011;8517;53.546;10.104;2022-11-18T12:38:00;14.40;;;10.00;;
11220;SDS011;8517;53.546;10.104;2022-11-18T12:40:37;13.47;;;9.83;;
11220;SDS011;8517;53.546;10.104;2022-11-18T12:52:58;13.23;;;9.40;;
11220;SDS011;8517;53.546;10.104;2022-11-18T12:55:30;9.80;;;7.07;;
11220;SDS011;8517;53.546;10.104;2022-11-18T13:01:24;10.77;;;5.20;;
11220;SDS011;8517;53.546;10.104;2022-11-18T13:04:04;9.60;;;6.40;;
11220;SDS011;8517;53.546;10.104;2022-11-18T13:06:33;10.30;;;7.43;;
11220;SDS011;8517;53.546;10.104;2022-11-18T13:09:20;9.70;;;7.37;;
11220;SDS011;8517;53.546;10.104;2022-11-18T13:12:13;9.90;;;7.20;;
11220;SDS011;8517;53.546;10.104;2022-11-18T13:14:49;12.50;;;8.27;;
11220;SDS011;8517;53.546;10.104;2022-11-18T13:17:36;8.43;;;5.77;;
11220;SDS011;8517;53.546;10.104;2022-11-18T13:20:36;9.60;;;6.67;;
11220;SDS011;8517;53.546;10.104;2022-11-18T13:26:21;5.50;;;3.57;;
11220;SDS011;8517;53.546;10.104;2022-11-18T13:28:59;6.83;;;5.27;;
11220;SDS011;8517;53.546;10.104;2022-11-18T13:31:41;6.57;;;5.00;;
11220;SDS011;8517;53.546;10.104;2022-11-18T13:34:30;6.27;;;4.13;;
11220;SDS011;8517;53.546;10.104;2022-11-18T13:37:10;6.23;;;4.90;;
11220;SDS011;8517;53.546;10.104;2022-11-18T13:39:44;6.03;;;4.90;;
11220;SDS011;8517;53.546;10.104;2022-11-18T13:42:15;6.97;;;5.10;;
11220;SDS011;8517;53.546;10.104;2022-11-18T13:44:44;6.07;;;5.47;;
11220;SDS011;8517;53.546;10.104;2022-11-18T13:47:24;8.00;;;5.40;;
11220;SDS011;8517;53.546;10.104;2022-11-18T13:50:04;8.20;;;5.03;;
11220;SDS011;8517;53.546;10.104;2022-11-18T13:52:54;5.03;;;4.07;;
11220;SDS011;8517;53.546;10.104;2022-11-18T13:55:53;6.27;;;4.80;;
11220;SDS011;8517;53.546;10.104;2022-11-18T13:58:44;6.50;;;4.80;;
11220;SDS011;8517;53.546;10.104;2022-11-18T14:01:21;8.43;;;5.00;;
11220;SDS011;8517;53.546;10.104;2022-11-18T14:04:01;5.63;;;4.20;;
11220;SDS011;8517;53.546;10.104;2022-11-18T14:10:30;6.43;;;4.27;;
11220;SDS011;8517;53.546;10.104;2022-11-18T14:13:22;4.90;;;4.00;;
11220;SDS011;8517;53.546;10.104;2022-11-18T14:15:55;4.80;;;4.13;;
11220;SDS011;8517;53.546;10.104;2022-11-18T14:18:48;5.53;;;3.53;;
11220;SDS011;8517;53.546;10.104;2022-11-18T14:21:37;5.13;;;4.03;;
11220;SDS011;8517;53.546;10.104;2022-11-18T14:27:39;5.77;;;4.67;;
11220;SDS011;8517;53.546;10.104;2022-11-18T14:30:31;6.17;;;4.13;;
11220;SDS011;8517;53.546;10.104;2022-11-18T14:33:40;6.40;;;4.93;;
11220;SDS011;8517;53.546;10.104;2022-11-18T14:36:33;5.23;;;4.63;;
11220;SDS011;8517;53.546;10.104;2022-11-18T14:38:59;6.27;;;4.43;;
11220;SDS011;8517;53.546;10.104;2022-11-18T14:44:31;5.57;;;4.23;;
11220;SDS011;8517;53.546;10.104;2022-11-18T14:46:59;6.67;;;5.20;;
11220;SDS011;8517;53.546;10.104;2022-11-18T14:49:29;6.20;;;5.20;;
11220;SDS011;8517;53.546;10.104;2022-11-18T14:51:57;6.63;;;4.50;;
11220;SDS011;8517;53.546;10.104;2022-11-18T14:54:28;6.23;;;5.13;;
11220;SDS011;8517;53.546;10.104;2022-11-18T14:56:56;6.83;;;4.93;;
11220;SDS011;8517;53.546;10.104;2022-11-18T14:59:25;7.13;;;5.47;;
11220;SDS011;8517;53.546;10.104;2022-11-18T15:01:52;8.03;;;5.67;;
11220;SDS011;8517;53.546;10.104;2022-11-18T15:04:21;6.73;;;5.37;;
11220;SDS011;8517;53.546;10.104;2022-11-18T15:06:49;8.57;;;5.33;;
11220;SDS011;8517;53.546;10.104;2022-11-18T15:09:16;7.80;;;5.60;;
11220;SDS011;8517;53.546;10.104;2022-11-18T15:11:44;8.93;;;6.33;;
11220;SDS011;8517;53.546;10.104;2022-11-18T15:14:11;6.60;;;5.20;;
11220;SDS011;8517;53.546;10.104;2022-11-18T15:16:41;8.20;;;5.80;;
11220;SDS011;8517;53.546;10.104;2022-11-18T15:19:17;7.17;;;5.97;;
11220;SDS011;8517;53.546;10.104;2022-11-18T15:21:54;9.63;;;5.97;;
11220;SDS011;8517;53.546;10.104;2022-11-18T15:24:33;6.30;;;5.67;;
11220;SDS011;8517;53.546;10.104;2022-11-18T15:27:01;7.03;;;5.10;;
11220;SDS011;8517;53.546;10.104;2022-11-18T15:29:41;7.30;;;5.50;;
11220;SDS011;8517;53.546;10.104;2022-11-18T15:32:50;7.13;;;5.97;;
11220;SDS011;8517;53.546;10.104;2022-11-18T15:35:46;10.43;;;7.47;;
11220;SDS011;8517;53.546;10.104;2022-11-18T15:41:06;12.87;;;6.10;;
11220;SDS011;8517;53.546;10.104;2022-11-18T15:43:58;8.63;;;6.63;;
11220;SDS011;8517;53.546;10.104;2022-11-18T15:46:27;7.30;;;6.00;;
11220;SDS011;8517;53.546;10.104;2022-11-18T15:49:15;9.47;;;6.30;;
11220;SDS011;8517;53.546;10.104;2022-11-18T15:51:56;7.83;;;5.87;;
11220;SDS011;8517;53.546;10.104;2022-11-18T15:54:31;7.57;;;5.60;;
11220;SDS011;8517;53.546;10.104;2022-11-18T15:57:05;6.47;;;5.40;;
11220;SDS011;8517;53.546;10.104;2022-11-18T15:59:33;6.53;;;5.43;;
11220;SDS011;8517;53.546;10.104;2022-11-18T16:02:03;7.03;;;5.10;;
11220;SDS011;8517;53.546;10.104;2022-11-18T16:04:38;6.63;;;5.13;;
11220;SDS011;8517;53.546;10.104;2022-11-18T16:07:15;24.27;;;15.10;;
11220;SDS011;8517;53.546;10.104;2022-11-18T16:12:59;6.97;;;5.57;;